sensor_id;sensor_type;location;lat;lon;timestamp;P1;durP1;ratioP1;P2;durP2;ratioP2
72053;SDS011;59918;51.280;7.950;2022-10-15T00:00:21;15.90;;;12.05;;
72053;SDS011;59918;51.280;7.950;2022-10-15T00:02:46;19.15;;;12.05;;
72053;SDS011;59918;51.280;7.950;2022-10-15T00:05:12;16.13;;;12.55;;
72053;SDS011;59918;51.280;7.950;2022-10-15T00:07:37;16.40;;;12.43;;
72053;SDS011;59918;51.280;7.950;2022-10-15T00:10:02;17.15;;;12.15;;
72053;SDS011;59918;51.280;7.950;2022-10-15T00:12:28;17.05;;;12.13;;
72053;SDS011;59918;51.280;7.950;2022-10-15T00:14:53;16.98;;;12.35;;
72053;SDS011;59918;51.280;7.950;2022-10-15T00:17:18;20.52;;;13.18;;
72053;SDS011;59918;51.280;7.950;2022-10-15T00:19:44;16.63;;;12.55;;
72053;SDS011;59918;51.280;7.950;2022-10-15T00:22:09;18.30;;;12.95;;
72053;SDS011;59918;51.280;7.950;2022-10-15T00:24:35;16.17;;;12.43;;
72053;SDS011;59918;51.280;7.950;2022-10-15T00:27:02;18.10;;;12.85;;
72053;SDS011;59918;51.280;7.950;2022-10-15T00:29:27;16.30;;;12.60;;
72053;SDS011;59918;51.280;7.950;2022-10-15T00:31:53;17.42;;;12.60;;
72053;SDS011;59918;51.280;7.950;2022-10-15T00:34:18;17.65;;;12.13;;
72053;SDS011;59918;51.280;7.950;2022-10-15T00:36:43;17.58;;;12.35;;
72053;SDS011;59918;51.280;7.950;2022-10-15T00:39:09;17.80;;;12.45;;
72053;SDS011;59918;51.280;7.950;2022-10-15T00:41:36;16.40;;;12.00;;
72053;SDS011;59918;51.280;7.950;2022-10-15T00:46:45;17.00;;;12.00;;
72053;SDS011;59918;51.280;7.950;2022-10-15T00:51:46;15.95;;;11.95;;
72053;SDS011;59918;51.280;7.950;2022-10-15T00:54:16;14.65;;;11.35;;
72053;SDS011;59918;51.280;7.950;2022-10-15T00:56:43;16.60;;;12.27;;
72053;SDS011;59918;51.280;7.950;2022-10-15T00:59:10;16.15;;;11.35;;
72053;SDS011;59918;51.280;7.950;2022-10-15T01:01:37;16.33;;;11.55;;
72053;SDS011;59918;51.280;7.950;2022-10-15T01:04:02;17.17;;;11.77;;
72053;SDS011;59918;51.280;7.950;2022-10-15T01:06:30;18.27;;;12.02;;
72053;SDS011;59918;51.280;7.950;2022-10-15T01:08:55;15.80;;;11.73;;
72053;SDS011;59918;51.280;7.950;2022-10-15T01:17:12;18.40;;;10.30;;
72053;SDS011;59918;51.280;7.950;2022-10-15T01:34:37;12.48;;;9.50;;
72053;SDS011;59918;51.280;7.950;2022-10-15T01:37:12;10.32;;;8.57;;
72053;SDS011;59918;51.280;7.950;2022-10-15T01:39:51;11.07;;;8.50;;
72053;SDS011;59918;51.280;7.950;2022-10-15T01:42:29;11.23;;;9.07;;
72053;SDS011;59918;51.280;7.950;2022-10-15T01:45:08;10.57;;;8.18;;
72053;SDS011;59918;51.280;7.950;2022-10-15T01:47:38;9.10;;;8.20;;
72053;SDS011;59918;51.280;7.950;2022-10-15T01:50:10;10.40;;;7.90;;
72053;SDS011;59918;51.280;7.950;2022-10-15T01:52:41;11.25;;;8.10;;
72053;SDS011;59918;51.280;7.950;2022-10-15T01:55:09;10.98;;;8.52;;
72053;SDS011;59918;51.280;7.950;2022-10-15T01:57:38;11.00;;;9.13;;
72053;SDS011;59918;51.280;7.950;2022-10-15T02:00:06;9.85;;;8.55;;
72053;SDS011;59918;51.280;7.950;2022-10-15T02:02:31;9.88;;;7.82;;
72053;SDS011;59918;51.280;7.950;2022-10-15T02:04:57;10.38;;;8.35;;
72053;SDS011;59918;51.280;7.950;2022-10-15T02:13:03;10.60;;;7.82;;
72053;SDS011;59918;51.280;7.950;2022-10-15T02:20:55;14.75;;;7.93;;
72053;SDS011;59918;51.280;7.950;2022-10-15T02:23:44;10.52;;;7.88;;
72053;SDS011;59918;51.280;7.950;2022-10-15T02:26:10;11.00;;;7.75;;
72053;SDS011;59918;51.280;7.950;2022-10-15T02:28:38;10.30;;;8.32;;
72053;SDS011;59918;51.280;7.950;2022-10-15T02:31:07;12.93;;;8.18;;
72053;SDS011;59918;51.280;7.950;2022-10-15T02:33:33;8.80;;;7.57;;
72053;SDS011;59918;51.280;7.950;2022-10-15T02:36:01;10.80;;;8.30;;
72053;SDS011;59918;51.280;7.950;2022-10-15T02:38:26;10.75;;;8.55;;
72053;SDS011;59918;51.280;7.950;2022-10-15T02:40:53;11.15;;;8.57;;
72053;SDS011;59918;51.280;7.950;2022-10-15T02:43:19;11.82;;;9.05;;
72053;SDS011;59918;51.280;7.950;2022-10-15T02:45:46;13.13;;;8.18;;
72053;SDS011;59918;51.280;7.950;2022-10-15T02:48:12;9.32;;;7.70;;
72053;SDS011;59918;51.280;7.950;2022-10-15T02:50:38;14.10;;;8.93;;
72053;SDS011;59918;51.280;7.950;2022-10-15T02:53:03;11.65;;;8.32;;
72053;SDS011;59918;51.280;7.950;2022-10-15T02:55:30;13.45;;;8.93;;
72053;SDS011;59918;51.280;7.950;2022-10-15T02:57:56;14.82;;;9.00;;
72053;SDS011;59918;51.280;7.950;2022-10-15T03:00:21;14.75;;;10.10;;
72053;SDS011;59918;51.280;7.950;2022-10-15T03:02:46;15.43;;;9.85;;
72053;SDS011;59918;51.280;7.950;2022-10-15T03:05:11;15.73;;;10.27;;
72053;SDS011;59918;51.280;7.950;2022-10-15T03:07:37;17.05;;;10.40;;
72053;SDS011;59918;51.280;7.950;2022-10-15T03:10:02;28.90;;;13.85;;
72053;SDS011;59918;51.280;7.950;2022-10-15T03:12:28;25.35;;;13.25;;
72053;SDS011;59918;51.280;7.950;2022-10-15T03:14:53;23.25;;;12.00;;
72053;SDS011;59918;51.280;7.950;2022-10-15T03:17:19;17.25;;;11.43;;
72053;SDS011;59918;51.280;7.950;2022-10-15T03:19:44;22.20;;;11.65;;
72053;SDS011;59918;51.280;7.950;2022-10-15T03:22:10;21.00;;;13.35;;
72053;SDS011;59918;51.280;7.950;2022-10-15T03:24:35;21.85;;;12.95;;
72053;SDS011;59918;51.280;7.950;2022-10-15T03:27:00;20.45;;;12.52;;
72053;SDS011;59918;51.280;7.950;2022-10-15T03:29:25;23.98;;;13.18;;
72053;SDS011;59918;51.280;7.950;2022-10-15T03:31:51;24.77;;;13.85;;
72053;SDS011;59918;51.280;7.950;2022-10-15T03:34:16;27.80;;;14.10;;
72053;SDS011;59918;51.280;7.950;2022-10-15T03:36:42;23.17;;;14.32;;
72053;SDS011;59918;51.280;7.950;2022-10-15T03:39:07;28.35;;;14.98;;
72053;SDS011;59918;51.280;7.950;2022-10-15T03:41:32;26.73;;;14.27;;
72053;SDS011;59918;51.280;7.950;2022-10-15T03:44:01;27.65;;;14.73;;
72053;SDS011;59918;51.280;7.950;2022-10-15T03:46:27;24.20;;;13.77;;
72053;SDS011;59918;51.280;7.950;2022-10-15T03:48:55;27.02;;;14.23;;
72053;SDS011;59918;51.280;7.950;2022-10-15T03:51:20;24.80;;;14.07;;
72053;SDS011;59918;51.280;7.950;2022-10-15T03:53:46;27.85;;;14.15;;
72053;SDS011;59918;51.280;7.950;2022-10-15T03:56:11;29.42;;;14.15;;
72053;SDS011;59918;51.280;7.950;2022-10-15T03:58:36;29.15;;;14.52;;
72053;SDS011;59918;51.280;7.950;2022-10-15T04:01:06;29.17;;;14.27;;
72053;SDS011;59918;51.280;7.950;2022-10-15T04:03:32;22.77;;;13.98;;
72053;SDS011;59918;51.280;7.950;2022-10-15T04:05:58;32.20;;;14.25;;
72053;SDS011;59918;51.280;7.950;2022-10-15T04:08:23;27.02;;;14.73;;
72053;SDS011;59918;51.280;7.950;2022-10-15T04:10:49;29.98;;;15.30;;
72053;SDS011;59918;51.280;7.950;2022-10-15T04:13:14;29.52;;;14.75;;
72053;SDS011;59918;51.280;7.950;2022-10-15T04:15:40;28.58;;;15.25;;
72053;SDS011;59918;51.280;7.950;2022-10-15T04:18:05;30.83;;;15.85;;
72053;SDS011;59918;51.280;7.950;2022-10-15T04:20:30;30.27;;;15.02;;
72053;SDS011;59918;51.280;7.950;2022-10-15T04:22:55;29.60;;;15.32;;
72053;SDS011;59918;51.280;7.950;2022-10-15T04:25:21;31.17;;;15.40;;
72053;SDS011;59918;51.280;7.950;2022-10-15T04:27:46;30.85;;;17.00;;
72053;SDS011;59918;51.280;7.950;2022-10-15T04:30:11;34.05;;;16.55;;
72053;SDS011;59918;51.280;7.950;2022-10-15T04:32:37;29.48;;;15.82;;
72053;SDS011;59918;51.280;7.950;2022-10-15T04:35:03;29.90;;;16.35;;
72053;SDS011;59918;51.280;7.950;2022-10-15T04:37:31;29.75;;;16.92;;
72053;SDS011;59918;51.280;7.950;2022-10-15T04:39:57;32.92;;;16.25;;
72053;SDS011;59918;51.280;7.950;2022-10-15T04:42:22;35.17;;;17.10;;
72053;SDS011;59918;51.280;7.950;2022-10-15T04:44:47;34.28;;;16.27;;
72053;SDS011;59918;51.280;7.950;2022-10-15T04:47:12;29.30;;;16.50;;
72053;SDS011;59918;51.280;7.950;2022-10-15T04:49:38;32.08;;;15.60;;
72053;SDS011;59918;51.280;7.950;2022-10-15T04:52:03;34.33;;;17.13;;
72053;SDS011;59918;51.280;7.950;2022-10-15T04:54:28;35.63;;;17.55;;
72053;SDS011;59918;51.280;7.950;2022-10-15T04:56:56;32.60;;;17.90;;
72053;SDS011;59918;51.280;7.950;2022-10-15T04:59:24;35.15;;;17.13;;
72053;SDS011;59918;51.280;7.950;2022-10-15T05:01:49;35.55;;;18.08;;
72053;SDS011;59918;51.280;7.950;2022-10-15T05:04:14;38.65;;;18.90;;
72053;SDS011;59918;51.280;7.950;2022-10-15T05:06:39;33.63;;;17.58;;
72053;SDS011;59918;51.280;7.950;2022-10-15T05:09:05;35.97;;;16.73;;
72053;SDS011;59918;51.280;7.950;2022-10-15T05:11:30;36.08;;;17.63;;
72053;SDS011;59918;51.280;7.950;2022-10-15T05:13:56;38.42;;;17.95;;
72053;SDS011;59918;51.280;7.950;2022-10-15T05:16:26;39.00;;;18.67;;
72053;SDS011;59918;51.280;7.950;2022-10-15T05:19:02;35.38;;;17.23;;
72053;SDS011;59918;51.280;7.950;2022-10-15T05:21:30;34.70;;;16.95;;
72053;SDS011;59918;51.280;7.950;2022-10-15T05:23:56;39.75;;;17.42;;
72053;SDS011;59918;51.280;7.950;2022-10-15T05:26:23;32.45;;;16.67;;
72053;SDS011;59918;51.280;7.950;2022-10-15T05:28:50;34.75;;;17.70;;
72053;SDS011;59918;51.280;7.950;2022-10-15T05:31:17;38.72;;;18.13;;
72053;SDS011;59918;51.280;7.950;2022-10-15T05:33:44;35.38;;;17.85;;
72053;SDS011;59918;51.280;7.950;2022-10-15T05:36:21;45.33;;;23.35;;
72053;SDS011;59918;51.280;7.950;2022-10-15T05:38:49;49.45;;;23.00;;
72053;SDS011;59918;51.280;7.950;2022-10-15T05:41:18;53.25;;;26.15;;
72053;SDS011;59918;51.280;7.950;2022-10-15T05:43:49;40.17;;;19.63;;
72053;SDS011;59918;51.280;7.950;2022-10-15T05:46:16;43.50;;;18.77;;
72053;SDS011;59918;51.280;7.950;2022-10-15T05:48:41;42.70;;;18.13;;
72053;SDS011;59918;51.280;7.950;2022-10-15T05:51:09;43.17;;;19.33;;
72053;SDS011;59918;51.280;7.950;2022-10-15T05:53:36;41.78;;;19.52;;
72053;SDS011;59918;51.280;7.950;2022-10-15T05:56:01;43.72;;;19.52;;
72053;SDS011;59918;51.280;7.950;2022-10-15T05:58:28;41.70;;;18.65;;
72053;SDS011;59918;51.280;7.950;2022-10-15T06:00:54;43.47;;;20.70;;
72053;SDS011;59918;51.280;7.950;2022-10-15T06:03:23;52.15;;;21.85;;
72053;SDS011;59918;51.280;7.950;2022-10-15T06:05:49;57.75;;;23.42;;
72053;SDS011;59918;51.280;7.950;2022-10-15T06:08:15;47.92;;;20.80;;
72053;SDS011;59918;51.280;7.950;2022-10-15T06:10:40;51.28;;;22.27;;
72053;SDS011;59918;51.280;7.950;2022-10-15T06:13:06;53.13;;;22.98;;
72053;SDS011;59918;51.280;7.950;2022-10-15T06:15:32;56.58;;;22.85;;
72053;SDS011;59918;51.280;7.950;2022-10-15T06:17:58;56.75;;;23.98;;
72053;SDS011;59918;51.280;7.950;2022-10-15T06:20:23;61.60;;;25.17;;
72053;SDS011;59918;51.280;7.950;2022-10-15T06:22:49;54.55;;;23.98;;
72053;SDS011;59918;51.280;7.950;2022-10-15T06:25:14;61.97;;;24.92;;
72053;SDS011;59918;51.280;7.950;2022-10-15T06:27:39;64.53;;;24.05;;
72053;SDS011;59918;51.280;7.950;2022-10-15T06:30:05;65.82;;;24.23;;
72053;SDS011;59918;51.280;7.950;2022-10-15T06:32:30;59.95;;;24.52;;
72053;SDS011;59918;51.280;7.950;2022-10-15T06:34:55;59.70;;;23.40;;
72053;SDS011;59918;51.280;7.950;2022-10-15T06:37:21;55.90;;;22.27;;
72053;SDS011;59918;51.280;7.950;2022-10-15T06:39:46;51.83;;;22.52;;
72053;SDS011;59918;51.280;7.950;2022-10-15T06:42:12;52.13;;;21.92;;
72053;SDS011;59918;51.280;7.950;2022-10-15T06:44:37;49.15;;;22.13;;
72053;SDS011;59918;51.280;7.950;2022-10-15T06:47:06;42.17;;;19.95;;
72053;SDS011;59918;51.280;7.950;2022-10-15T06:49:31;45.45;;;19.55;;
72053;SDS011;59918;51.280;7.950;2022-10-15T06:51:57;44.70;;;19.48;;
72053;SDS011;59918;51.280;7.950;2022-10-15T06:54:22;40.28;;;19.48;;
72053;SDS011;59918;51.280;7.950;2022-10-15T06:56:50;44.92;;;20.83;;
72053;SDS011;59918;51.280;7.950;2022-10-15T06:59:15;39.67;;;19.10;;
72053;SDS011;59918;51.280;7.950;2022-10-15T07:01:41;43.47;;;20.63;;
72053;SDS011;59918;51.280;7.950;2022-10-15T07:04:06;40.72;;;20.10;;
72053;SDS011;59918;51.280;7.950;2022-10-15T07:06:33;42.50;;;20.45;;
72053;SDS011;59918;51.280;7.950;2022-10-15T07:09:00;36.33;;;18.75;;
72053;SDS011;59918;51.280;7.950;2022-10-15T07:11:26;43.45;;;20.80;;
72053;SDS011;59918;51.280;7.950;2022-10-15T07:13:51;40.10;;;20.23;;
72053;SDS011;59918;51.280;7.950;2022-10-15T07:16:16;44.33;;;20.33;;
72053;SDS011;59918;51.280;7.950;2022-10-15T07:18:41;47.42;;;21.35;;
72053;SDS011;59918;51.280;7.950;2022-10-15T07:21:07;40.13;;;20.35;;
72053;SDS011;59918;51.280;7.950;2022-10-15T07:23:33;42.00;;;20.40;;
72053;SDS011;59918;51.280;7.950;2022-10-15T07:25:59;41.22;;;21.60;;
72053;SDS011;59918;51.280;7.950;2022-10-15T07:28:25;41.20;;;21.65;;
72053;SDS011;59918;51.280;7.950;2022-10-15T07:30:50;41.20;;;21.73;;
72053;SDS011;59918;51.280;7.950;2022-10-15T07:33:16;40.47;;;21.27;;
72053;SDS011;59918;51.280;7.950;2022-10-15T07:35:42;39.83;;;20.40;;
72053;SDS011;59918;51.280;7.950;2022-10-15T07:38:08;36.58;;;20.02;;
72053;SDS011;59918;51.280;7.950;2022-10-15T07:40:33;37.50;;;20.20;;
72053;SDS011;59918;51.280;7.950;2022-10-15T07:42:58;36.50;;;21.25;;
72053;SDS011;59918;51.280;7.950;2022-10-15T07:45:26;34.38;;;19.85;;
72053;SDS011;59918;51.280;7.950;2022-10-15T07:47:51;35.85;;;19.20;;
72053;SDS011;59918;51.280;7.950;2022-10-15T07:50:18;33.85;;;19.17;;
72053;SDS011;59918;51.280;7.950;2022-10-15T07:52:43;33.88;;;18.42;;
72053;SDS011;59918;51.280;7.950;2022-10-15T07:55:09;28.05;;;15.82;;
72053;SDS011;59918;51.280;7.950;2022-10-15T07:57:34;27.80;;;17.55;;
72053;SDS011;59918;51.280;7.950;2022-10-15T07:59:59;28.35;;;16.58;;
72053;SDS011;59918;51.280;7.950;2022-10-15T08:02:24;28.17;;;17.08;;
72053;SDS011;59918;51.280;7.950;2022-10-15T08:04:50;23.67;;;15.35;;
72053;SDS011;59918;51.280;7.950;2022-10-15T08:07:15;22.45;;;14.55;;
72053;SDS011;59918;51.280;7.950;2022-10-15T08:09:41;22.33;;;14.70;;
72053;SDS011;59918;51.280;7.950;2022-10-15T08:12:06;24.38;;;14.68;;
72053;SDS011;59918;51.280;7.950;2022-10-15T08:14:34;26.05;;;16.00;;
72053;SDS011;59918;51.280;7.950;2022-10-15T08:17:00;29.15;;;16.27;;
72053;SDS011;59918;51.280;7.950;2022-10-15T08:19:27;26.13;;;16.20;;
72053;SDS011;59918;51.280;7.950;2022-10-15T08:21:52;29.05;;;17.15;;
72053;SDS011;59918;51.280;7.950;2022-10-15T08:24:17;31.02;;;18.08;;
72053;SDS011;59918;51.280;7.950;2022-10-15T08:26:43;27.77;;;17.27;;
72053;SDS011;59918;51.280;7.950;2022-10-15T08:29:09;28.00;;;17.75;;
72053;SDS011;59918;51.280;7.950;2022-10-15T08:31:34;27.10;;;17.20;;
72053;SDS011;59918;51.280;7.950;2022-10-15T08:34:00;24.13;;;17.02;;
72053;SDS011;59918;51.280;7.950;2022-10-15T08:36:26;23.05;;;15.52;;
72053;SDS011;59918;51.280;7.950;2022-10-15T08:38:51;29.85;;;17.20;;
72053;SDS011;59918;51.280;7.950;2022-10-15T08:41:28;27.67;;;17.13;;
72053;SDS011;59918;51.280;7.950;2022-10-15T08:43:58;28.48;;;17.25;;
72053;SDS011;59918;51.280;7.950;2022-10-15T08:46:27;27.25;;;17.48;;
72053;SDS011;59918;51.280;7.950;2022-10-15T08:49:00;33.25;;;18.02;;
72053;SDS011;59918;51.280;7.950;2022-10-15T08:51:28;28.52;;;16.40;;
72053;SDS011;59918;51.280;7.950;2022-10-15T08:53:59;32.05;;;17.42;;
72053;SDS011;59918;51.280;7.950;2022-10-15T08:56:32;25.95;;;17.02;;
72053;SDS011;59918;51.280;7.950;2022-10-15T09:01:49;23.65;;;15.57;;
72053;SDS011;59918;51.280;7.950;2022-10-15T09:04:21;22.88;;;15.68;;
72053;SDS011;59918;51.280;7.950;2022-10-15T09:07:22;20.45;;;14.02;;
72053;SDS011;59918;51.280;7.950;2022-10-15T09:09:56;22.90;;;13.98;;
72053;SDS011;59918;51.280;7.950;2022-10-15T09:15:14;16.30;;;11.70;;
72053;SDS011;59918;51.280;7.950;2022-10-15T09:17:43;17.83;;;12.02;;
72053;SDS011;59918;51.280;7.950;2022-10-15T09:20:33;19.98;;;11.23;;
72053;SDS011;59918;51.280;7.950;2022-10-15T09:22:59;17.85;;;11.60;;
72053;SDS011;59918;51.280;7.950;2022-10-15T09:25:27;16.60;;;10.95;;
72053;SDS011;59918;51.280;7.950;2022-10-15T09:28:09;13.38;;;9.55;;
72053;SDS011;59918;51.280;7.950;2022-10-15T09:30:42;9.65;;;8.63;;
72053;SDS011;59918;51.280;7.950;2022-10-15T09:43:39;7.90;;;5.68;;
72053;SDS011;59918;51.280;7.950;2022-10-15T09:46:04;6.05;;;5.50;;
72053;SDS011;59918;51.280;7.950;2022-10-15T09:48:31;5.60;;;5.10;;
72053;SDS011;59918;51.280;7.950;2022-10-15T09:51:17;5.80;;;5.20;;
72053;SDS011;59918;51.280;7.950;2022-10-15T09:56:56;5.10;;;3.63;;
72053;SDS011;59918;51.280;7.950;2022-10-15T09:59:22;4.57;;;3.95;;
72053;SDS011;59918;51.280;7.950;2022-10-15T10:02:31;4.47;;;4.15;;
72053;SDS011;59918;51.280;7.950;2022-10-15T10:04:44;3.80;;;3.50;;
72053;SDS011;59918;51.280;7.950;2022-10-15T10:07:26;3.63;;;3.33;;
72053;SDS011;59918;51.280;7.950;2022-10-15T10:09:55;3.30;;;3.10;;
72053;SDS011;59918;51.280;7.950;2022-10-15T10:12:30;3.80;;;2.78;;
72053;SDS011;59918;51.280;7.950;2022-10-15T10:14:59;3.50;;;2.75;;
72053;SDS011;59918;51.280;7.950;2022-10-15T10:17:28;2.80;;;2.60;;
72053;SDS011;59918;51.280;7.950;2022-10-15T10:22:47;2.83;;;2.00;;
72053;SDS011;59918;51.280;7.950;2022-10-15T10:30:35;2.47;;;2.17;;
72053;SDS011;59918;51.280;7.950;2022-10-15T10:33:03;1.90;;;1.80;;
72053;SDS011;59918;51.280;7.950;2022-10-15T10:35:45;4.93;;;2.00;;
72053;SDS011;59918;51.280;7.950;2022-10-15T10:38:26;3.72;;;1.90;;
72053;SDS011;59918;51.280;7.950;2022-10-15T10:41:04;2.08;;;1.60;;
72053;SDS011;59918;51.280;7.950;2022-10-15T10:43:34;1.40;;;1.30;;
72053;SDS011;59918;51.280;7.950;2022-10-15T10:46:04;1.60;;;1.50;;
72053;SDS011;59918;51.280;7.950;2022-10-15T10:48:43;1.50;;;1.40;;
72053;SDS011;59918;51.280;7.950;2022-10-15T10:51:15;1.45;;;1.20;;
72053;SDS011;59918;51.280;7.950;2022-10-15T10:53:50;2.08;;;1.10;;
72053;SDS011;59918;51.280;7.950;2022-10-15T10:56:19;3.50;;;1.05;;
72053;SDS011;59918;51.280;7.950;2022-10-15T10:58:57;1.40;;;0.80;;
72053;SDS011;59918;51.280;7.950;2022-10-15T11:01:26;0.90;;;0.90;;
72053;SDS011;59918;51.280;7.950;2022-10-15T11:03:52;2.85;;;1.20;;
72053;SDS011;59918;51.280;7.950;2022-10-15T11:25:23;1.52;;;0.70;;
72053;SDS011;59918;51.280;7.950;2022-10-15T11:56:05;0.70;;;0.70;;
72053;SDS011;59918;51.280;7.950;2022-10-15T12:01:11;2.60;;;1.30;;
72053;SDS011;59918;51.280;7.950;2022-10-15T12:03:45;1.30;;;1.23;;
72053;SDS011;59918;51.280;7.950;2022-10-15T12:06:18;1.95;;;1.10;;
72053;SDS011;59918;51.280;7.950;2022-10-15T12:08:46;1.58;;;1.25;;
72053;SDS011;59918;51.280;7.950;2022-10-15T12:16:54;1.85;;;0.90;;
72053;SDS011;59918;51.280;7.950;2022-10-15T12:19:24;0.65;;;0.60;;
72053;SDS011;59918;51.280;7.950;2022-10-15T12:22:02;1.90;;;0.80;;
72053;SDS011;59918;51.280;7.950;2022-10-15T12:27:40;0.88;;;0.70;;
72053;SDS011;59918;51.280;7.950;2022-10-15T12:32:28;0.70;;;0.70;;
72053;SDS011;59918;51.280;7.950;2022-10-15T12:34:55;0.65;;;0.65;;
72053;SDS011;59918;51.280;7.950;2022-10-15T12:37:22;1.65;;;0.75;;
72053;SDS011;59918;51.280;7.950;2022-10-15T12:39:57;0.60;;;0.52;;
72053;SDS011;59918;51.280;7.950;2022-10-15T12:42:26;1.77;;;0.85;;
72053;SDS011;59918;51.280;7.950;2022-10-15T12:44:52;9.40;;;1.35;;
72053;SDS011;59918;51.280;7.950;2022-10-15T12:50:22;5.15;;;1.30;;
72053;SDS011;59918;51.280;7.950;2022-10-15T12:52:53;0.60;;;0.60;;
72053;SDS011;59918;51.280;7.950;2022-10-15T12:58:34;1.20;;;1.10;;
72053;SDS011;59918;51.280;7.950;2022-10-15T13:00:56;0.50;;;0.50;;
72053;SDS011;59918;51.280;7.950;2022-10-15T13:03:35;1.23;;;0.70;;
72053;SDS011;59918;51.280;7.950;2022-10-15T13:06:12;0.55;;;0.55;;
72053;SDS011;59918;51.280;7.950;2022-10-15T13:08:41;1.27;;;0.60;;
72053;SDS011;59918;51.280;7.950;2022-10-15T13:11:11;0.85;;;0.75;;
72053;SDS011;59918;51.280;7.950;2022-10-15T13:13:43;1.00;;;0.70;;
72053;SDS011;59918;51.280;7.950;2022-10-15T13:16:08;0.70;;;0.70;;
72053;SDS011;59918;51.280;7.950;2022-10-15T13:18:36;2.20;;;0.90;;
72053;SDS011;59918;51.280;7.950;2022-10-15T13:21:15;0.98;;;0.70;;
72053;SDS011;59918;51.280;7.950;2022-10-15T13:23:47;0.90;;;0.80;;
72053;SDS011;59918;51.280;7.950;2022-10-15T13:28:49;0.65;;;0.65;;
72053;SDS011;59918;51.280;7.950;2022-10-15T13:31:20;1.50;;;0.63;;
72053;SDS011;59918;51.280;7.950;2022-10-15T13:33:49;0.50;;;0.50;;
72053;SDS011;59918;51.280;7.950;2022-10-15T13:36:26;0.85;;;0.60;;
72053;SDS011;59918;51.280;7.950;2022-10-15T13:38:57;1.15;;;0.93;;
72053;SDS011;59918;51.280;7.950;2022-10-15T13:41:42;2.38;;;0.63;;
72053;SDS011;59918;51.280;7.950;2022-10-15T13:44:18;2.45;;;1.52;;
72053;SDS011;59918;51.280;7.950;2022-10-15T13:46:45;0.65;;;0.65;;
72053;SDS011;59918;51.280;7.950;2022-10-15T13:49:11;4.78;;;2.40;;
72053;SDS011;59918;51.280;7.950;2022-10-15T13:51:41;1.58;;;0.90;;
72053;SDS011;59918;51.280;7.950;2022-10-15T13:54:19;2.80;;;1.38;;
72053;SDS011;59918;51.280;7.950;2022-10-15T13:56:53;1.30;;;0.65;;
72053;SDS011;59918;51.280;7.950;2022-10-15T13:59:21;1.67;;;0.40;;
72053;SDS011;59918;51.280;7.950;2022-10-15T14:01:51;0.50;;;0.50;;
72053;SDS011;59918;51.280;7.950;2022-10-15T14:04:20;0.40;;;0.40;;
72053;SDS011;59918;51.280;7.950;2022-10-15T14:06:53;0.80;;;0.40;;
72053;SDS011;59918;51.280;7.950;2022-10-15T14:09:22;0.60;;;0.60;;
72053;SDS011;59918;51.280;7.950;2022-10-15T14:11:51;0.47;;;0.47;;
72053;SDS011;59918;51.280;7.950;2022-10-15T14:16:58;0.73;;;0.60;;
72053;SDS011;59918;51.280;7.950;2022-10-15T14:19:25;0.65;;;0.65;;
72053;SDS011;59918;51.280;7.950;2022-10-15T14:21:51;0.55;;;0.55;;
72053;SDS011;59918;51.280;7.950;2022-10-15T14:24:51;1.85;;;0.75;;
72053;SDS011;59918;51.280;7.950;2022-10-15T14:27:26;0.40;;;0.40;;
72053;SDS011;59918;51.280;7.950;2022-10-15T14:29:54;0.40;;;0.40;;
72053;SDS011;59918;51.280;7.950;2022-10-15T14:32:27;1.08;;;0.40;;
72053;SDS011;59918;51.280;7.950;2022-10-15T14:40:34;1.20;;;0.40;;
72053;SDS011;59918;51.280;7.950;2022-10-15T14:43:01;2.85;;;0.45;;
72053;SDS011;59918;51.280;7.950;2022-10-15T14:48:17;0.50;;;0.50;;
72053;SDS011;59918;51.280;7.950;2022-10-15T14:50:46;0.50;;;0.50;;
72053;SDS011;59918;51.280;7.950;2022-10-15T14:53:16;2.75;;;0.95;;
72053;SDS011;59918;51.280;7.950;2022-10-15T14:58:45;1.27;;;0.50;;
72053;SDS011;59918;51.280;7.950;2022-10-15T15:01:12;0.45;;;0.45;;
72053;SDS011;59918;51.280;7.950;2022-10-15T15:03:40;1.42;;;0.88;;
72053;SDS011;59918;51.280;7.950;2022-10-15T15:06:07;0.70;;;0.40;;
72053;SDS011;59918;51.280;7.950;2022-10-15T15:08:33;0.50;;;0.50;;
72053;SDS011;59918;51.280;7.950;2022-10-15T15:10:59;0.80;;;0.52;;
72053;SDS011;59918;51.280;7.950;2022-10-15T15:13:27;0.70;;;0.50;;
72053;SDS011;59918;51.280;7.950;2022-10-15T15:15:56;2.17;;;0.70;;
72053;SDS011;59918;51.280;7.950;2022-10-15T15:18:21;0.40;;;0.40;;
72053;SDS011;59918;51.280;7.950;2022-10-15T15:20:47;1.52;;;0.57;;
72053;SDS011;59918;51.280;7.950;2022-10-15T15:23:21;0.63;;;0.63;;
72053;SDS011;59918;51.280;7.950;2022-10-15T15:25:49;0.50;;;0.50;;
72053;SDS011;59918;51.280;7.950;2022-10-15T15:28:16;0.63;;;0.60;;
72053;SDS011;59918;51.280;7.950;2022-10-15T15:30:43;1.55;;;0.68;;
72053;SDS011;59918;51.280;7.950;2022-10-15T15:33:13;4.00;;;0.77;;
72053;SDS011;59918;51.280;7.950;2022-10-15T15:38:16;2.65;;;0.90;;
72053;SDS011;59918;51.280;7.950;2022-10-15T15:40:45;0.90;;;0.70;;
72053;SDS011;59918;51.280;7.950;2022-10-15T15:43:12;2.05;;;0.63;;
72053;SDS011;59918;51.280;7.950;2022-10-15T15:45:38;0.60;;;0.60;;
72053;SDS011;59918;51.280;7.950;2022-10-15T15:48:04;3.67;;;1.05;;
72053;SDS011;59918;51.280;7.950;2022-10-15T15:50:29;2.88;;;0.80;;
72053;SDS011;59918;51.280;7.950;2022-10-15T15:52:58;1.48;;;0.70;;
72053;SDS011;59918;51.280;7.950;2022-10-15T15:55:23;0.70;;;0.70;;
72053;SDS011;59918;51.280;7.950;2022-10-15T15:57:49;1.17;;;0.65;;
72053;SDS011;59918;51.280;7.950;2022-10-15T16:00:14;0.77;;;0.75;;
72053;SDS011;59918;51.280;7.950;2022-10-15T16:02:40;0.70;;;0.60;;
72053;SDS011;59918;51.280;7.950;2022-10-15T16:05:06;1.42;;;0.55;;
72053;SDS011;59918;51.280;7.950;2022-10-15T16:07:32;0.70;;;0.70;;
72053;SDS011;59918;51.280;7.950;2022-10-15T16:09:58;0.55;;;0.55;;
72053;SDS011;59918;51.280;7.950;2022-10-15T16:12:23;2.13;;;0.45;;
72053;SDS011;59918;51.280;7.950;2022-10-15T16:14:48;1.85;;;0.70;;
72053;SDS011;59918;51.280;7.950;2022-10-15T16:17:14;0.65;;;0.63;;
72053;SDS011;59918;51.280;7.950;2022-10-15T16:19:39;0.80;;;0.50;;
72053;SDS011;59918;51.280;7.950;2022-10-15T16:22:04;0.60;;;0.60;;
72053;SDS011;59918;51.280;7.950;2022-10-15T16:24:30;3.17;;;1.50;;
72053;SDS011;59918;51.280;7.950;2022-10-15T16:26:56;2.65;;;1.38;;
72053;SDS011;59918;51.280;7.950;2022-10-15T16:29:21;1.08;;;0.70;;
72053;SDS011;59918;51.280;7.950;2022-10-15T16:31:49;9.07;;;5.55;;
72053;SDS011;59918;51.280;7.950;2022-10-15T16:34:14;2.25;;;0.90;;
72053;SDS011;59918;51.280;7.950;2022-10-15T16:36:39;2.60;;;2.50;;
72053;SDS011;59918;51.280;7.950;2022-10-15T16:39:04;0.85;;;0.65;;
72053;SDS011;59918;51.280;7.950;2022-10-15T16:41:30;1.23;;;0.85;;
72053;SDS011;59918;51.280;7.950;2022-10-15T16:43:55;1.95;;;1.00;;
72053;SDS011;59918;51.280;7.950;2022-10-15T16:46:20;4.20;;;0.70;;
72053;SDS011;59918;51.280;7.950;2022-10-15T16:48:50;3.40;;;1.95;;
72053;SDS011;59918;51.280;7.950;2022-10-15T16:51:19;2.75;;;2.55;;
72053;SDS011;59918;51.280;7.950;2022-10-15T16:53:46;2.60;;;1.20;;
72053;SDS011;59918;51.280;7.950;2022-10-15T16:56:17;1.95;;;1.38;;
72053;SDS011;59918;51.280;7.950;2022-10-15T16:58:47;2.22;;;2.13;;
72053;SDS011;59918;51.280;7.950;2022-10-15T17:01:14;1.88;;;1.23;;
72053;SDS011;59918;51.280;7.950;2022-10-15T17:03:42;0.95;;;0.95;;
72053;SDS011;59918;51.280;7.950;2022-10-15T17:06:09;2.22;;;0.95;;
72053;SDS011;59918;51.280;7.950;2022-10-15T17:11:02;2.45;;;0.95;;